createdAt,value
2022-09-06T00:01:24.530Z,0.20
2022-09-06T00:03:51.358Z,0.20
2022-09-06T00:06:20.079Z,0.32
2022-09-06T00:08:48.118Z,0.65
2022-09-06T00:11:16.242Z,0.60
2022-09-06T00:13:43.809Z,0.20
2022-09-06T00:16:16.727Z,0.20
2022-09-06T00:18:44.180Z,0.35
2022-09-06T00:21:29.146Z,0.13
2022-09-06T00:23:56.095Z,0.30
2022-09-06T00:26:23.217Z,0.30
2022-09-06T00:28:50.016Z,0.43
2022-09-06T00:31:20.138Z,0.38
2022-09-06T00:36:13.850Z,0.40
2022-09-06T00:38:41.463Z,1.77
2022-09-06T00:41:09.715Z,0.30
2022-09-06T00:43:36.999Z,0.50
2022-09-06T00:46:05.100Z,0.60
2022-09-06T00:48:32.095Z,0.57
2022-09-06T00:51:03.793Z,0.30
2022-09-06T00:53:31.146Z,0.15
2022-09-06T00:55:57.982Z,0.30
2022-09-06T00:58:25.659Z,0.20
2022-09-06T01:00:52.495Z,0.20
2022-09-06T01:03:20.055Z,0.65
2022-09-06T01:06:08.519Z,0.50
2022-09-06T01:08:38.031Z,0.47
2022-09-06T01:11:33.424Z,0.37
2022-09-06T01:14:12.247Z,0.57
2022-09-06T01:17:04.953Z,0.28
2022-09-06T01:20:12.746Z,0.40
2022-09-06T01:23:07.035Z,0.30
2022-09-06T01:25:44.256Z,0.10
2022-09-06T01:28:28.190Z,0.45
2022-09-06T01:31:33.267Z,0.20
2022-09-06T01:34:06.406Z,0.10
2022-09-06T01:36:45.814Z,0.50
2022-09-06T01:39:32.441Z,0.75
2022-09-06T01:42:07.033Z,0.28
2022-09-06T01:44:34.674Z,0.55
2022-09-06T01:47:32.289Z,0.10
2022-09-06T01:50:09.925Z,0.30
2022-09-06T01:53:27.511Z,0.77
2022-09-06T01:56:18.422Z,0.20
2022-09-06T01:59:12.824Z,0.80
2022-09-06T02:02:10.266Z,0.47
2022-09-06T02:04:39.826Z,0.38
2022-09-06T02:07:18.678Z,0.50
2022-09-06T02:09:54.849Z,0.15
2022-09-06T02:12:24.308Z,0.20
2022-09-06T02:14:58.911Z,0.30
2022-09-06T02:17:30.944Z,0.70
2022-09-06T02:20:15.949Z,0.38
2022-09-06T02:22:45.377Z,0.20
2022-09-06T02:25:18.823Z,0.30
2022-09-06T02:27:45.711Z,0.65
2022-09-06T02:30:12.574Z,0.22
2022-09-06T02:32:44.836Z,0.30
2022-09-06T02:35:15.765Z,0.35
2022-09-06T02:37:43.498Z,0.20
2022-09-06T02:40:11.119Z,0.20
2022-09-06T02:42:38.657Z,0.10
2022-09-06T02:45:05.677Z,0.20
2022-09-06T02:47:32.435Z,0.20
2022-09-06T02:49:59.238Z,0.77
2022-09-06T02:52:25.906Z,0.20
2022-09-06T02:54:52.670Z,0.30
2022-09-06T02:57:19.356Z,0.88
2022-09-06T02:59:46.342Z,0.40
2022-09-06T03:02:13.139Z,0.47
2022-09-06T03:04:39.930Z,0.50
2022-09-06T03:07:06.610Z,0.20
2022-09-06T03:09:33.349Z,0.28
2022-09-06T03:12:00.024Z,0.25
2022-09-06T03:14:26.763Z,0.10
2022-09-06T03:16:53.629Z,0.30
2022-09-06T03:19:21.659Z,0.30
2022-09-06T03:21:48.470Z,0.35
2022-09-06T03:24:15.195Z,0.17
2022-09-06T03:26:41.959Z,0.20
2022-09-06T03:29:08.642Z,0.30
2022-09-06T03:31:35.435Z,0.50
2022-09-06T03:34:02.126Z,0.30
2022-09-06T03:36:29.706Z,0.77
2022-09-06T03:38:56.422Z,0.38
2022-09-06T03:41:23.127Z,0.20
2022-09-06T03:43:49.782Z,0.30
2022-09-06T03:46:16.567Z,0.10
2022-09-06T03:48:43.358Z,1.05
2022-09-06T03:51:10.090Z,0.30
2022-09-06T03:53:36.822Z,0.32
2022-09-06T03:56:03.789Z,0.30
2022-09-06T03:58:32.195Z,0.65
2022-09-06T04:01:07.947Z,0.28
2022-09-06T04:03:35.336Z,0.20
2022-09-06T04:06:02.498Z,0.20
2022-09-06T04:08:30.158Z,0.85
2022-09-06T04:10:57.610Z,0.20
2022-09-06T04:13:27.344Z,0.63
2022-09-06T04:15:54.033Z,0.30
2022-09-06T04:18:21.575Z,0.13
2022-09-06T04:20:50.022Z,0.20
2022-09-06T04:23:17.337Z,0.20
2022-09-06T04:25:50.324Z,0.40
2022-09-06T04:28:18.544Z,0.30
2022-09-06T04:30:46.389Z,0.47
2022-09-06T04:33:13.105Z,0.40
2022-09-06T04:35:39.823Z,0.20
2022-09-06T04:38:06.578Z,0.30
2022-09-06T04:40:33.307Z,0.25
2022-09-06T04:43:00.078Z,0.43
2022-09-06T04:45:26.801Z,0.20
2022-09-06T04:47:53.671Z,0.10
2022-09-06T04:50:20.351Z,0.57
2022-09-06T04:52:48.044Z,0.40
2022-09-06T04:55:14.889Z,0.70
2022-09-06T04:57:45.792Z,0.32
2022-09-06T05:00:14.555Z,0.22
2022-09-06T05:02:41.293Z,0.25
2022-09-06T05:05:08.566Z,0.20
2022-09-06T05:07:35.216Z,0.17
2022-09-06T05:10:02.274Z,0.17
2022-09-06T05:12:28.971Z,0.30
2022-09-06T05:14:56.908Z,0.90
2022-09-06T05:17:23.724Z,0.38
2022-09-06T05:19:50.461Z,0.30
2022-09-06T05:22:17.371Z,0.25
2022-09-06T05:24:44.242Z,0.30
2022-09-06T05:27:12.691Z,0.32
2022-09-06T05:29:39.439Z,0.43
2022-09-06T05:32:06.379Z,0.10
2022-09-06T05:34:33.159Z,0.32
2022-09-06T05:36:59.797Z,0.25
2022-09-06T05:39:26.562Z,0.30
2022-09-06T05:41:53.291Z,0.60
2022-09-06T05:44:25.656Z,0.40
2022-09-06T05:46:53.634Z,0.40
2022-09-06T05:49:20.375Z,0.20
2022-09-06T05:51:51.573Z,0.52
2022-09-06T05:54:18.264Z,0.32
2022-09-06T05:56:44.992Z,1.13
2022-09-06T05:59:11.720Z,0.40
2022-09-06T06:01:50.657Z,0.25
2022-09-06T06:04:22.418Z,0.40
2022-09-06T06:06:50.094Z,0.40
2022-09-06T06:09:23.661Z,0.47
2022-09-06T06:11:51.107Z,0.10
2022-09-06T06:14:17.797Z,0.30
2022-09-06T06:16:44.850Z,0.40
2022-09-06T06:19:11.743Z,0.60
2022-09-06T06:21:39.217Z,0.22
2022-09-06T06:24:06.367Z,0.25
2022-09-06T06:26:35.959Z,0.40
2022-09-06T06:29:03.631Z,0.63
2022-09-06T06:31:31.903Z,0.40
2022-09-06T06:33:59.452Z,0.47
2022-09-06T06:36:31.169Z,0.40
2022-09-06T06:38:58.813Z,0.10
2022-09-06T06:41:27.063Z,0.20
2022-09-06T06:43:59.466Z,0.70
2022-09-06T06:46:28.514Z,0.63
2022-09-06T06:48:55.476Z,0.28
2022-09-06T06:51:27.187Z,0.57
2022-09-06T06:53:54.486Z,0.98
2022-09-06T06:56:28.414Z,0.22
2022-09-06T06:58:57.672Z,1.13
2022-09-06T07:01:26.531Z,0.20
2022-09-06T07:03:54.487Z,0.30
2022-09-06T07:06:21.844Z,0.20
2022-09-06T07:08:49.218Z,0.50
2022-09-06T07:11:19.482Z,0.10
2022-09-06T07:13:48.369Z,0.60
2022-09-06T07:16:19.188Z,0.85
2022-09-06T07:18:46.283Z,0.45
2022-09-06T07:24:05.516Z,0.28
2022-09-06T07:26:33.401Z,0.55
2022-09-06T07:29:01.463Z,0.90
2022-09-06T07:34:17.678Z,0.25
2022-09-06T07:36:44.399Z,0.63
2022-09-06T07:39:11.163Z,0.28
2022-09-06T07:41:37.872Z,0.30
2022-09-06T07:44:04.609Z,0.52
2022-09-06T07:46:31.331Z,0.30
2022-09-06T07:48:58.145Z,0.90
2022-09-06T07:51:24.898Z,1.05
2022-09-06T07:54:12.810Z,0.45
2022-09-06T07:56:42.195Z,0.50
2022-09-06T07:59:09.303Z,0.32
2022-09-06T08:01:37.937Z,0.50
2022-09-06T08:04:15.611Z,0.20
2022-09-06T08:09:35.477Z,0.73
2022-09-06T08:12:06.978Z,0.52
2022-09-06T08:14:34.608Z,0.30
2022-09-06T08:17:02.214Z,0.40
2022-09-06T08:19:28.971Z,0.20
2022-09-06T08:21:56.164Z,0.95
2022-09-06T08:24:22.920Z,0.20
2022-09-06T08:26:49.859Z,0.10
2022-09-06T08:29:16.655Z,0.30
2022-09-06T08:31:44.444Z,0.30
2022-09-06T08:34:15.225Z,0.22
2022-09-06T08:36:42.670Z,0.50
2022-09-06T08:39:10.320Z,0.22
2022-09-06T08:42:06.505Z,0.30
2022-09-06T08:45:03.093Z,0.17
2022-09-06T08:47:21.470Z,0.65
2022-09-06T08:49:53.094Z,0.38
2022-09-06T08:52:28.441Z,0.20
2022-09-06T08:55:22.963Z,0.30
2022-09-06T08:58:07.801Z,0.30
2022-09-06T09:00:35.634Z,0.38
2022-09-06T09:03:21.102Z,0.95
2022-09-06T09:05:52.315Z,0.43
2022-09-06T09:08:44.999Z,0.50
2022-09-06T09:11:22.476Z,0.30
2022-09-06T09:14:04.389Z,0.63
2022-09-06T09:16:32.149Z,1.10
2022-09-06T09:19:01.686Z,0.63
2022-09-06T09:21:32.262Z,0.73
2022-09-06T09:24:03.611Z,0.50
2022-09-06T09:26:45.244Z,0.82
2022-09-06T09:29:13.793Z,1.73
2022-09-06T09:31:42.462Z,0.20
2022-09-06T09:34:12.445Z,0.20
2022-09-06T09:36:40.101Z,0.60
2022-09-06T09:39:11.191Z,0.60
2022-09-06T09:41:40.456Z,0.30
2022-09-06T09:44:16.653Z,0.30
2022-09-06T09:46:43.834Z,0.63
2022-09-06T09:49:25.034Z,0.32
2022-09-06T09:52:06.777Z,0.30
2022-09-06T09:54:38.368Z,0.20
2022-09-06T09:57:11.820Z,0.20
2022-09-06T09:59:54.260Z,0.68
2022-09-06T10:02:29.016Z,0.40
2022-09-06T10:05:15.980Z,0.30
2022-09-06T10:07:51.458Z,0.30
2022-09-06T10:10:25.128Z,0.35
2022-09-06T10:13:31.732Z,0.25
2022-09-06T10:15:59.691Z,0.28
2022-09-06T10:18:35.960Z,0.38
2022-09-06T10:21:06.582Z,1.42
2022-09-06T10:26:56.850Z,0.55
2022-09-06T10:29:32.793Z,0.30
2022-09-06T10:32:31.128Z,0.20
2022-09-06T10:35:24.143Z,0.57
2022-09-06T10:38:18.630Z,0.50
2022-09-06T10:41:07.777Z,0.38
2022-09-06T10:44:18.166Z,0.20
2022-09-06T10:46:48.672Z,0.20
2022-09-06T10:49:19.554Z,0.15
2022-09-06T10:52:00.349Z,0.32
2022-09-06T10:54:30.734Z,0.30
2022-09-06T10:57:03.719Z,0.95
2022-09-06T10:59:41.982Z,0.40
2022-09-06T11:02:17.957Z,0.25
2022-09-06T11:07:38.136Z,0.22
2022-09-06T11:10:22.179Z,0.57
2022-09-06T11:12:54.647Z,0.50
2022-09-06T11:15:23.015Z,0.63
2022-09-06T11:17:58.430Z,0.63
2022-09-06T11:20:39.479Z,0.43
2022-09-06T11:23:38.009Z,0.30
2022-09-06T11:26:17.587Z,0.32
2022-09-06T11:28:48.658Z,0.20
2022-09-06T11:34:28.418Z,0.50
2022-09-06T11:36:57.319Z,0.30
2022-09-06T11:42:46.406Z,0.30
2022-09-06T11:45:22.621Z,0.25
2022-09-06T11:47:51.270Z,0.30
2022-09-06T11:50:20.954Z,0.52
2022-09-06T11:53:06.463Z,0.20
2022-09-06T11:55:46.589Z,0.38
2022-09-06T11:58:20.929Z,0.20
2022-09-06T12:01:28.171Z,0.30
2022-09-06T12:04:06.507Z,0.20
2022-09-06T12:06:39.687Z,0.20
2022-09-06T12:09:29.545Z,0.20
2022-09-06T12:14:52.836Z,0.20
2022-09-06T12:17:20.651Z,0.20
2022-09-06T12:20:06.113Z,0.20
2022-09-06T12:22:35.284Z,0.30
2022-09-06T12:25:23.903Z,0.28
2022-09-06T12:27:54.071Z,0.20
2022-09-06T12:30:43.366Z,0.20
2022-09-06T12:33:20.878Z,0.38
2022-09-06T12:36:05.822Z,0.20
2022-09-06T12:38:34.353Z,0.47
2022-09-06T12:41:01.951Z,0.30
2022-09-06T12:43:29.653Z,0.40
2022-09-06T12:45:56.520Z,0.30
2022-09-06T12:48:35.406Z,0.43
2022-09-06T12:51:06.266Z,0.53
2022-09-06T12:53:34.908Z,0.60
2022-09-06T12:56:07.654Z,0.40
2022-09-06T12:58:35.717Z,0.47
2022-09-06T13:01:16.146Z,0.50
2022-09-06T13:03:56.359Z,0.20
2022-09-06T13:06:27.159Z,0.25
2022-09-06T13:08:57.004Z,0.30
2022-09-06T13:11:31.495Z,0.50
2022-09-06T13:13:58.593Z,0.52
2022-09-06T13:16:28.321Z,0.63
2022-09-06T13:18:55.062Z,0.28
2022-09-06T13:21:32.870Z,0.40
2022-09-06T13:24:03.858Z,0.45
2022-09-06T13:26:38.785Z,0.30
2022-09-06T13:29:17.596Z,0.40
2022-09-06T13:31:52.359Z,0.20
2022-09-06T13:34:24.546Z,0.30
2022-09-06T13:36:53.978Z,0.50
2022-09-06T13:39:53.267Z,0.30
2022-09-06T13:42:31.610Z,0.57
2022-09-06T13:45:01.924Z,0.95
2022-09-06T13:47:29.830Z,0.22
2022-09-06T13:49:56.635Z,0.63
2022-09-06T13:52:23.442Z,0.40
2022-09-06T13:54:50.159Z,0.40
2022-09-06T13:57:19.994Z,0.40
2022-09-06T13:59:50.268Z,0.30
2022-09-06T14:02:19.562Z,0.28
2022-09-06T14:04:46.345Z,0.38
2022-09-06T14:07:13.114Z,0.50
2022-09-06T14:09:39.967Z,0.20
2022-09-06T14:12:06.947Z,0.20
2022-09-06T14:14:34.379Z,0.40
2022-09-06T14:17:01.156Z,0.47
2022-09-06T14:19:28.819Z,0.30
2022-09-06T14:21:55.472Z,0.47
2022-09-06T14:24:22.309Z,0.40
2022-09-06T14:26:49.327Z,0.20
2022-09-06T14:29:16.365Z,0.28
2022-09-06T14:31:43.102Z,0.45
2022-09-06T14:34:09.891Z,0.82
2022-09-06T14:36:36.673Z,1.40
2022-09-06T14:39:04.151Z,0.50
2022-09-06T14:41:31.165Z,0.63
2022-09-06T14:43:58.737Z,0.30
2022-09-06T14:46:27.551Z,0.30
2022-09-06T14:49:07.184Z,0.50
2022-09-06T14:51:34.733Z,0.30
2022-09-06T14:54:07.307Z,0.45
2022-09-06T14:56:34.458Z,0.55
2022-09-06T14:59:01.189Z,0.40
2022-09-06T15:01:34.123Z,0.30
2022-09-06T15:04:05.640Z,0.30
2022-09-06T15:06:33.543Z,0.30
2022-09-06T15:09:00.721Z,0.30
2022-09-06T15:11:39.462Z,0.40
2022-09-06T15:14:15.441Z,0.32
2022-09-06T15:16:42.900Z,0.77
2022-09-06T15:19:10.271Z,0.20
2022-09-06T15:21:37.106Z,0.28
2022-09-06T15:24:07.328Z,0.35
2022-09-06T15:26:36.654Z,0.40
2022-09-06T15:29:03.583Z,0.28
2022-09-06T15:31:34.079Z,0.22
2022-09-06T15:34:02.753Z,1.35
2022-09-06T15:36:29.953Z,1.70
2022-09-06T15:39:01.266Z,1.80
2022-09-06T15:41:30.910Z,2.40
2022-09-06T15:44:01.938Z,3.70
2022-09-06T15:46:36.383Z,4.25
2022-09-06T15:49:07.301Z,5.90
2022-09-06T15:51:35.350Z,6.85
2022-09-06T15:54:02.022Z,8.15
2022-09-06T15:58:55.313Z,7.93
2022-09-06T16:03:55.118Z,7.68
2022-09-06T16:06:27.789Z,8.00
2022-09-06T16:09:07.386Z,8.35
2022-09-06T16:11:36.607Z,9.50
2022-09-06T16:14:09.586Z,10.13
2022-09-06T16:16:37.030Z,9.48
2022-09-06T16:19:03.981Z,8.90
2022-09-06T16:21:32.375Z,8.30
2022-09-06T16:24:09.402Z,8.30
2022-09-06T16:26:38.447Z,8.20
2022-09-06T16:29:06.973Z,7.65
2022-09-06T16:31:39.702Z,7.80
2022-09-06T16:34:10.953Z,6.32
2022-09-06T16:36:37.945Z,5.30
2022-09-06T16:44:04.574Z,4.20
2022-09-06T16:46:31.503Z,2.67
2022-09-06T16:49:05.973Z,1.70
2022-09-06T16:51:32.931Z,1.75
2022-09-06T16:54:00.680Z,1.27
2022-09-06T16:56:31.945Z,0.75
2022-09-06T16:59:00.254Z,0.45
2022-09-06T17:01:28.314Z,0.40
2022-09-06T17:03:55.562Z,0.20
2022-09-06T17:06:23.142Z,0.30
2022-09-06T17:08:50.918Z,0.57
2022-09-06T17:11:20.594Z,0.20
2022-09-06T17:13:49.457Z,0.20
2022-09-06T17:16:35.866Z,0.17
2022-09-06T17:19:04.306Z,0.20
2022-09-06T17:21:31.539Z,0.20
2022-09-06T17:24:01.888Z,0.20
2022-09-06T17:26:29.207Z,0.22
2022-09-06T17:28:57.116Z,0.20
2022-09-06T17:31:25.942Z,0.30
2022-09-06T17:33:53.660Z,0.20
2022-09-06T17:36:25.161Z,0.15
2022-09-06T17:38:54.171Z,0.38
2022-09-06T17:41:21.918Z,0.65
2022-09-06T17:43:48.958Z,0.20
2022-09-06T17:46:16.226Z,0.38
2022-09-06T17:48:43.595Z,0.32
2022-09-06T17:51:11.694Z,0.30
2022-09-06T17:53:39.097Z,0.40
2022-09-06T17:56:07.718Z,0.20
2022-09-06T17:58:36.684Z,0.63
2022-09-06T18:01:12.056Z,0.15
2022-09-06T18:03:41.310Z,0.20
2022-09-06T18:06:10.889Z,0.37
2022-09-06T18:08:40.048Z,0.10
2022-09-06T18:11:27.604Z,0.30
2022-09-06T18:13:56.863Z,0.73
2022-09-06T18:16:24.939Z,1.20
2022-09-06T18:18:57.230Z,0.55
2022-09-06T18:21:26.394Z,0.60
2022-09-06T18:23:56.114Z,0.45
2022-09-06T18:26:24.013Z,0.80
2022-09-06T18:28:52.934Z,0.20
2022-09-06T18:31:23.207Z,0.47
2022-09-06T18:33:50.803Z,0.38
2022-09-06T18:36:18.642Z,0.10
2022-09-06T18:38:46.221Z,0.32
2022-09-06T18:41:35.194Z,1.02
2022-09-06T18:44:03.773Z,0.30
2022-09-06T18:46:32.718Z,1.00
2022-09-06T18:49:00.086Z,0.40
2022-09-06T18:51:27.701Z,0.30
2022-09-06T18:53:57.348Z,0.32
2022-09-06T18:56:25.030Z,0.60
2022-09-06T18:59:02.294Z,0.20
2022-09-06T19:01:30.418Z,0.30
2022-09-06T19:03:58.681Z,0.28
2022-09-06T19:06:28.363Z,0.22
2022-09-06T19:08:59.459Z,0.10
2022-09-06T19:11:26.618Z,0.20
2022-09-06T19:13:55.075Z,0.28
2022-09-06T19:16:23.306Z,0.10
2022-09-06T19:18:51.013Z,0.20
2022-09-06T19:21:22.175Z,0.10
2022-09-06T19:23:59.237Z,0.47
2022-09-06T19:26:28.588Z,0.20
2022-09-06T19:29:17.877Z,0.10
2022-09-06T19:31:46.459Z,0.30
2022-09-06T19:34:15.666Z,0.22
2022-09-06T19:36:44.805Z,0.10
2022-09-06T19:39:15.600Z,0.60
2022-09-06T19:41:44.959Z,0.90
2022-09-06T19:44:11.798Z,0.17
2022-09-06T19:46:43.719Z,0.25
2022-09-06T19:49:12.725Z,0.20
2022-09-06T19:51:39.825Z,0.40
2022-09-06T19:54:06.619Z,0.65
2022-09-06T19:56:34.829Z,0.10
2022-09-06T19:59:07.347Z,0.43
2022-09-06T20:01:35.491Z,0.17
2022-09-06T20:04:05.052Z,0.30
2022-09-06T20:06:31.987Z,0.50
2022-09-06T20:08:59.970Z,0.25
2022-09-06T20:11:28.829Z,0.20
2022-09-06T20:13:56.020Z,0.40
2022-09-06T20:16:26.775Z,0.63
2022-09-06T20:18:59.047Z,0.30
2022-09-06T20:21:27.087Z,0.30
2022-09-06T20:23:55.578Z,0.30
2022-09-06T20:26:23.957Z,0.30
2022-09-06T20:28:55.894Z,0.57
2022-09-06T20:31:23.189Z,0.22
2022-09-06T20:33:50.112Z,0.20
2022-09-06T20:36:17.986Z,0.35
2022-09-06T20:38:45.887Z,0.60
2022-09-06T20:41:15.465Z,0.47
2022-09-06T20:43:42.578Z,0.25
2022-09-06T20:46:20.049Z,0.22
2022-09-06T20:48:47.250Z,0.20
2022-09-06T20:51:18.748Z,0.28
2022-09-06T20:53:48.113Z,0.20
2022-09-06T20:56:19.282Z,0.10
2022-09-06T20:58:53.962Z,0.10
2022-09-06T21:01:22.968Z,0.20
2022-09-06T21:03:54.507Z,0.20
2022-09-06T21:06:21.922Z,0.47
2022-09-06T21:08:49.691Z,0.10
2022-09-06T21:11:16.936Z,0.20
2022-09-06T21:13:43.906Z,0.40
2022-09-06T21:16:11.059Z,0.10
2022-09-06T21:18:37.838Z,0.73
2022-09-06T21:21:06.694Z,0.25
2022-09-06T21:23:36.770Z,0.60
2022-09-06T21:26:10.158Z,0.38
2022-09-06T21:28:39.778Z,0.38
2022-09-06T21:31:14.971Z,0.10
2022-09-06T21:33:43.677Z,0.40
2022-09-06T21:36:12.438Z,0.25
2022-09-06T21:38:40.861Z,0.10
2022-09-06T21:41:08.910Z,0.45
2022-09-06T21:43:36.046Z,0.22
2022-09-06T21:46:07.423Z,0.30
2022-09-06T21:48:38.622Z,0.17
2022-09-06T21:51:09.933Z,0.28
2022-09-06T21:53:37.542Z,0.35
2022-09-06T21:56:05.398Z,0.73
2022-09-06T21:58:33.030Z,0.20
2022-09-06T22:01:01.340Z,0.40
2022-09-06T22:03:30.303Z,0.20
2022-09-06T22:05:57.662Z,0.50
2022-09-06T22:08:25.425Z,1.38
2022-09-06T22:10:52.307Z,0.20
2022-09-06T22:13:20.402Z,0.85
2022-09-06T22:15:47.366Z,0.30
2022-09-06T22:18:14.089Z,0.30
2022-09-06T22:20:40.831Z,0.22
2022-09-06T22:23:08.442Z,0.63
2022-09-06T22:25:35.276Z,0.17
2022-09-06T22:28:02.157Z,0.20
2022-09-06T22:30:28.900Z,0.30
2022-09-06T22:32:55.976Z,0.50
2022-09-06T22:35:22.691Z,0.10
2022-09-06T22:37:49.323Z,0.22
2022-09-06T22:40:16.182Z,0.10
2022-09-06T22:42:43.409Z,0.20
2022-09-06T22:45:10.370Z,0.10
2022-09-06T22:47:37.065Z,0.40
2022-09-06T22:50:04.093Z,0.10
2022-09-06T22:52:30.769Z,0.90
2022-09-06T22:54:57.533Z,0.20
2022-09-06T22:57:25.672Z,0.30
2022-09-06T22:59:52.384Z,0.57
2022-09-06T23:02:19.030Z,0.20
2022-09-06T23:04:46.411Z,0.20
2022-09-06T23:07:13.123Z,0.40
2022-09-06T23:09:39.954Z,0.63
2022-09-06T23:12:06.922Z,0.65
2022-09-06T23:14:33.706Z,0.13
2022-09-06T23:17:00.395Z,0.10
2022-09-06T23:19:27.214Z,0.10
2022-09-06T23:21:53.858Z,0.22
2022-09-06T23:24:20.653Z,0.68
2022-09-06T23:26:47.385Z,0.50
2022-09-06T23:29:14.354Z,0.17
2022-09-06T23:31:42.635Z,0.30
2022-09-06T23:34:09.405Z,0.30
2022-09-06T23:36:36.143Z,0.85
2022-09-06T23:39:02.969Z,0.20
2022-09-06T23:41:30.057Z,0.20
2022-09-06T23:43:57.474Z,0.38
2022-09-06T23:46:24.171Z,0.20
2022-09-06T23:48:50.998Z,1.02
2022-09-06T23:51:17.805Z,1.58
2022-09-06T23:53:44.915Z,0.30
2022-09-06T23:56:11.722Z,0.60
2022-09-06T23:58:38.592Z,0.43
